Time;durP1;ratioP1;P1;durP2;ratioP2;P2;SDS_P1;SDS_P2;PMS_P1;PMS_P2;Temp;Humidity;BMP_temperature;BMP_pressure;BME280_temperature;BME280_humidity;BME280_pressure;Samples;Min_cycle;Max_cycle;Signal;HPM_P1;HPM_P2
2022/02/14 00:01:51;;;;;;;1.20;1.00;;;2.10;98.00;;;;;;5071731;28;20488;-64
2022/02/14 00:04:20;;;;;;;1.20;1.00;;;2.10;98.00;;;;;;5071881;28;20878;-64
2022/02/14 00:06:47;;;;;;;2.13;1.77;;;2.20;98.00;;;;;;5071708;28;20518;-64
2022/02/14 00:09:14;;;;;;;1.20;1.10;;;2.10;98.00;;;;;;5071913;28;20951;-64
2022/02/14 00:11:41;;;;;;;1.30;1.10;;;2.10;98.00;;;;;;5071861;28;20555;-65
2022/02/14 00:14:08;;;;;;;1.30;1.20;;;2.20;98.00;;;;;;5071787;28;20518;-64
2022/02/14 00:16:35;;;;;;;1.40;1.10;;;2.30;98.00;;;;;;5071953;28;20526;-64
2022/02/14 00:19:03;;;;;;;2.03;1.57;;;2.50;98.00;;;;;;5071624;28;20520;-64
2022/02/14 00:21:31;;;;;;;1.97;1.87;;;2.30;98.00;;;;;;5071432;28;20496;-64
2022/02/14 00:23:58;;;;;;;1.40;1.33;;;2.30;98.00;;;;;;5074214;28;20495;-64
2022/02/14 00:26:28;;;;;;;2.53;1.20;;;2.40;98.00;;;;;;5075585;28;20555;-64
2022/02/14 00:28:55;;;;;;;2.33;1.30;;;2.30;98.00;;;;;;5057954;28;20813;-64
2022/02/14 00:31:22;;;;;;;1.20;1.10;;;2.30;98.00;;;;;;5075572;28;20915;-65
2022/02/14 00:33:49;;;;;;;1.80;1.40;;;2.30;98.00;;;;;;5075600;28;20535;-64
2022/02/14 00:36:16;;;;;;;2.30;1.40;;;2.20;98.00;;;;;;5075154;28;21156;-64
2022/02/14 00:38:44;;;;;;;1.23;1.07;;;2.40;98.00;;;;;;5075555;28;20577;-64
2022/02/14 00:41:12;;;;;;;1.50;1.47;;;2.50;98.00;;;;;;5075368;28;20506;-63
2022/02/14 00:43:39;;;;;;;1.30;1.27;;;2.30;98.00;;;;;;5075382;28;20558;-64
2022/02/14 00:46:06;;;;;;;1.20;1.00;;;2.30;98.00;;;;;;5075240;28;20543;-64
2022/02/14 00:48:33;;;;;;;1.20;1.10;;;2.40;98.00;;;;;;5075274;28;20945;-64
2022/02/14 00:51:01;;;;;;;1.20;1.00;;;2.40;98.00;;;;;;5075290;28;20485;-64
2022/02/14 00:53:28;;;;;;;1.20;1.10;;;2.30;98.00;;;;;;5075199;28;20872;-64
2022/02/14 00:55:56;;;;;;;1.33;1.27;;;2.40;98.00;;;;;;5057519;28;20463;-63
2022/02/14 00:58:24;;;;;;;1.20;1.10;;;2.50;98.00;;;;;;5075244;28;20516;-64
2022/02/14 01:00:51;;;;;;;1.67;1.60;;;2.40;98.00;;;;;;5075059;28;20487;-65
2022/02/14 01:03:19;;;;;;;1.83;1.73;;;2.30;98.00;;;;;;5075029;28;20499;-64
2022/02/14 01:05:45;;;;;;;1.63;1.40;;;2.30;98.00;;;;;;5074863;28;20500;-64
2022/02/14 01:08:12;;;;;;;1.20;1.10;;;2.50;98.00;;;;;;5075118;28;21012;-64
2022/02/14 01:10:39;;;;;;;1.67;1.63;;;2.60;98.00;;;;;;5074651;28;20448;-64
2022/02/14 01:13:08;;;;;;;1.60;1.40;;;2.50;98.00;;;;;;5074947;28;20871;-63
2022/02/14 01:15:35;;;;;;;1.77;1.63;;;2.50;98.00;;;;;;5074542;28;20448;-64
2022/02/14 01:18:03;;;;;;;1.20;1.00;;;2.60;98.00;;;;;;5074635;28;20484;-64
2022/02/14 01:20:30;;;;;;;1.20;1.13;;;2.70;98.00;;;;;;5074637;28;20518;-64
2022/02/14 01:22:57;;;;;;;1.20;1.10;;;2.60;98.00;;;;;;5074844;28;21028;-64
2022/02/14 01:25:24;;;;;;;1.20;1.10;;;2.70;98.00;;;;;;5074714;28;20998;-64
2022/02/14 01:27:51;;;;;;;1.30;1.10;;;2.70;98.00;;;;;;5074713;28;20496;-64
2022/02/14 01:30:19;;;;;;;1.53;1.33;;;2.70;98.00;;;;;;5074695;28;20543;-64
2022/02/14 01:32:46;;;;;;;1.40;1.20;;;2.70;98.00;;;;;;5074683;28;20483;-64
2022/02/14 01:35:13;;;;;;;1.77;1.27;;;2.70;98.00;;;;;;5074105;28;20484;-65
2022/02/14 01:37:42;;;;;;;1.43;1.20;;;2.70;98.00;;;;;;5056727;28;20464;-64
2022/02/14 01:40:12;;;;;;;1.40;1.40;;;2.70;98.00;;;;;;5074722;28;20517;-64
2022/02/14 01:42:39;;;;;;;1.20;1.00;;;2.70;98.00;;;;;;5074559;28;20544;-64
2022/02/14 01:45:08;;;;;;;1.40;1.30;;;2.70;98.00;;;;;;5073634;28;20460;-64
2022/02/14 01:47:37;;;;;;;1.20;1.00;;;2.80;98.00;;;;;;5074565;28;20939;-64
2022/02/14 01:50:06;;;;;;;1.50;1.13;;;2.90;98.00;;;;;;5074258;28;20454;-64
2022/02/14 01:52:35;;;;;;;1.20;1.00;;;2.80;98.00;;;;;;5074123;28;20457;-64
2022/02/14 01:55:05;;;;;;;1.20;1.20;;;2.80;98.00;;;;;;5074342;28;20456;-64
2022/02/14 01:57:33;;;;;;;1.20;1.00;;;2.70;98.00;;;;;;5074045;28;20510;-64
2022/02/14 02:00:01;;;;;;;1.20;1.00;;;2.70;98.00;;;;;;5073632;28;20515;-64
2022/02/14 02:02:29;;;;;;;1.60;1.33;;;2.60;98.00;;;;;;5073985;28;20524;-64
2022/02/14 02:04:57;;;;;;;1.20;0.97;;;2.70;98.00;;;;;;5074072;28;20497;-64
2022/02/14 02:07:25;;;;;;;1.20;1.10;;;2.70;98.00;;;;;;5073754;28;20492;-64
2022/02/14 02:09:52;;;;;;;1.60;1.50;;;2.60;98.00;;;;;;5073806;28;21049;-64
2022/02/14 02:12:25;;;;;;;1.97;1.37;;;2.70;98.00;;;;;;5073706;28;20493;-64
2022/02/14 02:14:55;;;;;;;1.20;1.00;;;2.80;98.00;;;;;;5073853;28;20461;-64
2022/02/14 02:17:24;;;;;;;1.40;1.30;;;2.90;98.00;;;;;;5073439;28;20459;-64
2022/02/14 02:19:51;;;;;;;1.30;1.27;;;2.90;98.00;;;;;;5073528;28;20912;-64
2022/02/14 02:22:20;;;;;;;1.20;1.07;;;2.90;98.00;;;;;;5073349;28;20471;-64
2022/02/14 02:24:49;;;;;;;1.30;1.20;;;3.00;98.00;;;;;;5073552;28;20484;-64
2022/02/14 02:27:17;;;;;;;1.20;1.00;;;3.00;98.00;;;;;;5073166;28;20453;-64
2022/02/14 02:29:44;;;;;;;1.20;1.10;;;3.00;98.00;;;;;;5073447;28;20551;-63
2022/02/14 02:32:13;;;;;;;1.20;1.00;;;2.90;98.00;;;;;;5073371;28;20489;-64
2022/02/14 02:34:43;;;;;;;1.50;1.20;;;2.90;98.00;;;;;;5073211;28;20482;-64
2022/02/14 02:37:12;;;;;;;1.30;1.23;;;3.10;98.00;;;;;;5073293;28;20544;-64
2022/02/14 02:39:40;;;;;;;1.20;1.10;;;3.20;98.00;;;;;;5073173;28;20570;-64
2022/02/14 02:42:10;;;;;;;1.60;1.30;;;3.00;98.00;;;;;;5072680;28;20468;-64
2022/02/14 02:44:38;;;;;;;1.30;1.20;;;3.00;98.00;;;;;;5072505;28;20449;-64
2022/02/14 02:47:07;;;;;;;1.60;1.30;;;3.00;98.00;;;;;;5071456;28;20459;-64
2022/02/14 02:49:35;;;;;;;1.20;1.00;;;3.00;98.00;;;;;;5073036;28;20509;-63
2022/02/14 02:52:03;;;;;;;1.20;0.93;;;3.00;98.00;;;;;;5073150;28;20499;-64
2022/02/14 02:54:30;;;;;;;1.60;1.40;;;2.90;98.00;;;;;;5073136;28;20476;-64
2022/02/14 02:56:57;;;;;;;1.80;1.50;;;2.80;98.00;;;;;;5073045;28;20445;-64
2022/02/14 02:59:28;;;;;;;1.20;1.00;;;2.80;98.00;;;;;;5072755;28;21079;-64
2022/02/14 03:01:55;;;;;;;1.20;1.00;;;2.80;98.00;;;;;;5072636;28;20446;-64
2022/02/14 03:04:23;;;;;;;1.20;0.90;;;2.80;98.00;;;;;;5073010;28;20488;-64
2022/02/14 03:06:50;;;;;;;1.20;1.00;;;2.90;98.00;;;;;;5072666;28;20453;-64
2022/02/14 03:09:17;;;;;;;1.30;1.23;;;2.90;98.00;;;;;;5073118;28;21008;-64
2022/02/14 03:11:45;;;;;;;2.27;1.63;;;3.00;98.00;;;;;;5072919;28;20905;-64
2022/02/14 03:14:13;;;;;;;1.20;1.00;;;2.90;98.00;;;;;;5072472;28;20510;-64
2022/02/14 03:16:42;;;;;;;2.00;1.33;;;2.80;98.00;;;;;;5072508;28;20456;-64
2022/02/14 03:19:10;;;;;;;1.30;1.20;;;2.80;98.00;;;;;;5072586;28;20569;-64
2022/02/14 03:21:38;;;;;;;1.20;1.00;;;2.90;98.00;;;;;;5072349;28;20467;-63
2022/02/14 03:24:05;;;;;;;1.90;1.83;;;2.90;98.00;;;;;;5072087;28;20500;-64
2022/02/14 03:26:33;;;;;;;1.80;1.33;;;2.90;98.00;;;;;;5072276;28;20457;-64
2022/02/14 03:29:00;;;;;;;1.20;1.00;;;3.00;98.00;;;;;;5072145;28;20457;-64
2022/02/14 03:31:27;;;;;;;1.20;0.90;;;3.00;98.00;;;;;;5071856;28;20457;-64
2022/02/14 03:33:56;;;;;;;1.30;1.10;;;3.00;98.00;;;;;;5072198;28;20480;-64
2022/02/14 03:36:25;;;;;;;1.73;1.33;;;2.90;98.00;;;;;;5072090;28;20503;-64
2022/02/14 03:38:56;;;;;;;1.30;1.10;;;3.00;98.00;;;;;;5072042;28;20869;-63
2022/02/14 03:41:23;;;;;;;1.30;1.20;;;2.90;98.00;;;;;;5072021;28;20453;-64
2022/02/14 03:43:50;;;;;;;1.20;1.00;;;3.00;98.00;;;;;;5072093;28;20461;-64
2022/02/14 03:46:17;;;;;;;1.20;1.10;;;2.80;98.00;;;;;;5071705;28;20891;-64
2022/02/14 03:48:44;;;;;;;1.20;1.07;;;2.70;98.00;;;;;;5071933;28;20535;-64
2022/02/14 03:51:13;;;;;;;1.20;1.10;;;2.70;98.00;;;;;;5072038;28;20484;-64
2022/02/14 03:53:40;;;;;;;1.20;0.90;;;2.70;98.00;;;;;;5071966;28;20518;-64
2022/02/14 03:56:07;;;;;;;3.20;1.20;;;2.70;98.00;;;;;;5072039;28;20563;-64
2022/02/14 03:58:35;;;;;;;1.20;1.10;;;2.60;98.00;;;;;;5071797;28;20465;-64
2022/02/14 04:01:02;;;;;;;1.20;1.00;;;2.60;98.00;;;;;;5071345;28;20568;-64
2022/02/14 04:03:29;;;;;;;1.20;0.97;;;2.50;98.00;;;;;;5071930;28;20484;-65
2022/02/14 04:05:56;;;;;;;1.20;0.90;;;2.60;98.00;;;;;;5071898;28;21000;-64
2022/02/14 04:08:25;;;;;;;1.20;1.00;;;2.60;98.00;;;;;;5071927;28;20882;-64
2022/02/14 04:10:53;;;;;;;2.27;1.20;;;2.50;98.00;;;;;;5071985;28;20465;-64
2022/02/14 04:13:21;;;;;;;1.20;1.00;;;2.50;98.00;;;;;;5071886;28;20449;-64
2022/02/14 04:15:48;;;;;;;1.30;1.30;;;2.30;98.00;;;;;;5071695;28;20459;-63
2022/02/14 04:18:15;;;;;;;1.20;1.00;;;2.30;98.00;;;;;;5071841;28;20453;-64
2022/02/14 04:20:42;;;;;;;1.20;1.10;;;2.20;98.00;;;;;;5071553;28;20524;-64
2022/02/14 04:23:09;;;;;;;1.40;1.20;;;2.20;98.00;;;;;;5071890;28;20457;-64
2022/02/14 04:25:37;;;;;;;1.70;1.50;;;2.20;98.00;;;;;;5071836;28;21010;-64
2022/02/14 04:28:05;;;;;;;1.20;1.10;;;2.20;98.00;;;;;;5071581;28;20457;-64
2022/02/14 04:30:32;;;;;;;1.20;1.00;;;2.10;98.00;;;;;;5071762;28;20519;-64
2022/02/14 04:33:00;;;;;;;1.20;1.00;;;2.00;98.00;;;;;;5071636;28;20550;-63
2022/02/14 04:35:29;;;;;;;1.20;1.00;;;2.10;98.00;;;;;;5071621;28;20897;-64
2022/02/14 04:37:59;;;;;;;1.10;0.90;;;2.00;98.00;;;;;;5071478;28;20477;-65
2022/02/14 04:40:31;;;;;;;1.30;1.10;;;2.10;98.00;;;;;;5053360;28;20484;-64
2022/02/14 04:43:00;;;;;;;1.20;1.10;;;1.90;98.00;;;;;;5071370;28;20453;-64
2022/02/14 04:45:28;;;;;;;1.30;1.27;;;1.90;98.00;;;;;;5071447;28;20484;-63
2022/02/14 04:47:56;;;;;;;1.20;1.00;;;1.90;98.00;;;;;;5071166;28;20495;-63
2022/02/14 04:50:23;;;;;;;1.20;1.00;;;2.00;98.00;;;;;;5071306;28;20484;-64
2022/02/14 04:52:51;;;;;;;1.17;1.00;;;2.00;98.00;;;;;;5071318;28;20477;-64
2022/02/14 04:55:18;;;;;;;1.20;1.10;;;2.10;98.00;;;;;;5071179;28;20456;-64
2022/02/14 04:57:45;;;;;;;1.20;1.00;;;2.10;98.00;;;;;;5071126;28;20496;-64
2022/02/14 05:00:16;;;;;;;1.63;1.47;;;2.00;98.00;;;;;;5071267;28;20489;-64
2022/02/14 05:02:44;;;;;;;1.20;1.00;;;2.10;98.00;;;;;;5071135;28;20511;-64
2022/02/14 05:05:11;;;;;;;1.87;1.50;;;2.10;98.00;;;;;;5071208;28;20456;-64
2022/02/14 05:07:39;;;;;;;1.20;1.00;;;2.10;98.00;;;;;;5071019;28;20491;-64
2022/02/14 05:10:07;;;;;;;1.30;1.30;;;2.10;98.00;;;;;;5073634;28;20500;-64
2022/02/14 05:12:34;;;;;;;1.20;1.10;;;2.00;98.00;;;;;;5074832;28;20484;-64
2022/02/14 05:15:01;;;;;;;1.20;1.00;;;1.80;98.00;;;;;;5074820;28;20459;-64
2022/02/14 05:17:29;;;;;;;1.20;1.00;;;1.70;98.00;;;;;;5074608;28;20460;-64
2022/02/14 05:19:56;;;;;;;1.20;1.00;;;1.70;98.00;;;;;;5074733;28;20574;-64
2022/02/14 05:22:23;;;;;;;1.30;1.20;;;1.60;98.00;;;;;;5074985;28;20510;-64
2022/02/14 05:24:52;;;;;;;1.20;1.00;;;1.70;98.00;;;;;;5074736;28;20875;-64
2022/02/14 05:27:20;;;;;;;1.60;1.30;;;1.70;98.00;;;;;;5074526;28;20509;-64
2022/02/14 05:29:55;;;;;;;1.20;1.10;;;1.70;98.00;;;;;;5074750;28;20581;-65
2022/02/14 05:32:22;;;;;;;2.60;1.57;;;1.70;98.00;;;;;;5074566;28;20479;-64
2022/02/14 05:34:50;;;;;;;1.20;1.17;;;1.70;98.00;;;;;;5074486;28;20464;-64
2022/02/14 05:37:17;;;;;;;2.23;2.03;;;1.50;98.00;;;;;;5074462;28;20541;-63
2022/02/14 05:39:46;;;;;;;1.20;1.00;;;1.50;98.00;;;;;;5074415;28;20982;-64
2022/02/14 05:42:13;;;;;;;1.20;1.00;;;1.50;98.00;;;;;;5074212;28;20457;-64
2022/02/14 05:44:40;;;;;;;4.43;1.77;;;1.50;98.00;;;;;;5074409;28;20871;-64
2022/02/14 05:47:08;;;;;;;1.60;1.10;;;1.50;98.00;;;;;;5074548;28;20586;-64
2022/02/14 05:49:36;;;;;;;1.20;1.10;;;1.60;98.00;;;;;;5074301;28;21010;-64
2022/02/14 05:52:05;;;;;;;1.20;1.10;;;1.80;98.00;;;;;;5074273;28;20484;-63
2022/02/14 05:54:33;;;;;;;1.50;1.37;;;1.80;98.00;;;;;;5074503;28;20460;-64
2022/02/14 05:57:00;;;;;;;1.60;1.20;;;1.70;98.00;;;;;;5074310;28;20452;-64
2022/02/14 05:59:28;;;;;;;2.17;2.00;;;1.90;98.00;;;;;;5073939;28;20454;-63
2022/02/14 06:01:57;;;;;;;1.40;1.20;;;1.90;98.00;;;;;;5074188;28;20572;-64
2022/02/14 06:04:24;;;;;;;1.30;1.20;;;1.90;98.00;;;;;;5074003;28;20449;-63
2022/02/14 06:06:51;;;;;;;1.20;0.90;;;1.90;98.00;;;;;;5073836;28;20483;-64
2022/02/14 06:09:19;;;;;;;1.73;1.53;;;1.80;98.00;;;;;;5074069;28;20523;-64
2022/02/14 06:11:46;;;;;;;1.20;1.10;;;1.70;98.00;;;;;;5074017;28;20480;-64
2022/02/14 06:14:13;;;;;;;1.20;1.00;;;1.70;98.00;;;;;;5073508;28;20496;-64
2022/02/14 06:16:40;;;;;;;1.33;1.30;;;1.70;98.00;;;;;;5073778;28;20489;-64
2022/02/14 06:19:07;;;;;;;1.20;1.10;;;1.50;98.00;;;;;;5073941;28;21003;-63
2022/02/14 06:21:34;;;;;;;1.50;1.30;;;1.50;98.00;;;;;;5071928;28;20957;-64
2022/02/14 06:24:01;;;;;;;1.20;1.10;;;1.60;98.00;;;;;;5073447;28;20456;-64
2022/02/14 06:26:32;;;;;;;1.20;1.00;;;1.70;98.00;;;;;;5073538;28;20500;-64
2022/02/14 06:28:59;;;;;;;1.33;1.27;;;1.80;98.00;;;;;;5073459;28;20468;-64
2022/02/14 06:31:27;;;;;;;1.40;1.10;;;1.80;98.00;;;;;;5073270;28;20445;-64
2022/02/14 06:33:54;;;;;;;1.20;1.00;;;1.90;98.00;;;;;;5055673;28;20935;-64
2022/02/14 06:36:23;;;;;;;1.20;1.00;;;1.90;98.00;;;;;;5073305;28;20504;-64
2022/02/14 06:38:51;;;;;;;1.17;1.00;;;1.80;98.00;;;;;;5073194;28;20514;-64
2022/02/14 06:41:18;;;;;;;1.20;1.00;;;1.80;98.00;;;;;;5073053;28;20520;-64
2022/02/14 06:43:46;;;;;;;1.17;1.00;;;2.00;98.00;;;;;;5073186;28;20603;-64
2022/02/14 06:46:13;;;;;;;1.17;0.90;;;1.90;98.00;;;;;;5072928;28;20974;-64
2022/02/14 06:48:40;;;;;;;5.20;1.93;;;2.00;98.00;;;;;;5073045;28;21029;-64
2022/02/14 06:51:07;;;;;;;1.57;1.20;;;2.00;98.00;;;;;;5073063;28;20452;-64
2022/02/14 06:53:34;;;;;;;2.60;1.43;;;2.10;98.00;;;;;;5072980;28;20453;-64
2022/02/14 06:56:05;;;;;;;1.20;1.00;;;2.20;98.00;;;;;;5072977;28;20495;-64
2022/02/14 06:58:32;;;;;;;1.20;1.00;;;2.20;98.00;;;;;;5073024;28;20464;-64
2022/02/14 07:01:04;;;;;;;1.47;1.20;;;2.30;98.00;;;;;;5072883;28;20524;-64
2022/02/14 07:03:31;;;;;;;1.40;1.10;;;2.30;98.00;;;;;;5072887;28;20480;-64
2022/02/14 07:05:59;;;;;;;1.40;1.10;;;2.30;98.00;;;;;;5072780;28;20502;-64
2022/02/14 07:08:27;;;;;;;1.20;1.00;;;2.30;98.00;;;;;;5072848;28;20511;-64
2022/02/14 07:10:54;;;;;;;2.13;1.53;;;2.40;98.00;;;;;;5072915;28;20802;-64
2022/02/14 07:13:21;;;;;;;1.40;1.10;;;2.50;98.00;;;;;;5072777;28;20488;-64
2022/02/14 07:15:48;;;;;;;1.20;1.00;;;2.50;98.00;;;;;;5072888;28;20790;-64
2022/02/14 07:18:17;;;;;;;1.20;1.00;;;2.60;98.00;;;;;;5072869;28;20544;-63
2022/02/14 07:20:44;;;;;;;1.20;1.00;;;2.60;98.00;;;;;;5072770;28;20496;-64
2022/02/14 07:23:11;;;;;;;1.20;1.10;;;2.70;98.00;;;;;;5072497;28;20487;-64
2022/02/14 07:25:39;;;;;;;1.20;0.90;;;2.70;98.00;;;;;;5072682;28;20492;-64
2022/02/14 07:28:07;;;;;;;1.20;0.93;;;2.70;98.00;;;;;;5072183;28;20493;-63
2022/02/14 07:30:34;;;;;;;1.20;0.90;;;2.70;98.00;;;;;;5072173;28;20532;-64
2022/02/14 07:33:01;;;;;;;1.30;1.10;;;2.90;98.00;;;;;;5071907;28;20488;-63
2022/02/14 07:35:31;;;;;;;5.30;2.87;;;3.00;98.00;;;;;;5072071;28;20488;-63
2022/02/14 07:37:58;;;;;;;4.23;2.33;;;2.90;98.00;;;;;;5071855;28;20536;-63
2022/02/14 07:40:26;;;;;;;2.03;1.57;;;3.00;98.00;;;;;;5071967;28;20994;-63
2022/02/14 07:42:53;;;;;;;1.20;1.00;;;2.90;98.00;;;;;;5072070;28;20559;-63
2022/02/14 07:45:21;;;;;;;1.33;1.30;;;2.90;98.00;;;;;;5071841;28;20493;-63
2022/02/14 07:47:48;;;;;;;1.20;0.90;;;2.90;98.00;;;;;;5071999;28;20547;-64
2022/02/14 07:50:16;;;;;;;2.43;1.70;;;2.80;98.00;;;;;;5071890;28;20484;-63
2022/02/14 07:52:44;;;;;;;1.30;1.23;;;2.80;98.00;;;;;;5070964;28;20462;-64
2022/02/14 07:55:11;;;;;;;2.30;1.67;;;2.80;98.00;;;;;;5071136;28;20492;-64
2022/02/14 07:57:38;;;;;;;2.03;1.53;;;2.90;98.00;;;;;;5053263;28;20991;-64
2022/02/14 08:00:08;;;;;;;1.20;1.00;;;2.80;98.00;;;;;;5071842;28;21040;-64
2022/02/14 08:02:35;;;;;;;1.47;1.43;;;2.70;98.00;;;;;;5071626;28;20568;-64
2022/02/14 08:05:02;;;;;;;1.30;1.20;;;2.70;98.00;;;;;;5071797;28;20807;-64
2022/02/14 08:07:29;;;;;;;1.20;1.03;;;2.70;98.00;;;;;;5071825;28;20535;-63
2022/02/14 08:09:58;;;;;;;1.20;0.93;;;2.80;98.00;;;;;;5071816;28;20484;-64
2022/02/14 08:12:26;;;;;;;3.30;1.87;;;2.90;98.00;;;;;;5071734;28;20480;-63
2022/02/14 08:14:53;;;;;;;1.30;1.20;;;2.90;98.00;;;;;;5069586;28;20543;-64
2022/02/14 08:17:20;;;;;;;1.40;1.20;;;2.90;98.00;;;;;;5053821;28;20460;-63
2022/02/14 08:19:47;;;;;;;1.20;1.00;;;3.00;98.00;;;;;;5071912;28;20486;-63
2022/02/14 08:22:13;;;;;;;1.30;1.20;;;3.00;98.00;;;;;;5071339;28;20528;-63
2022/02/14 08:24:40;;;;;;;1.70;1.20;;;3.20;98.00;;;;;;5071899;28;20461;-64
2022/02/14 08:27:09;;;;;;;1.20;1.07;;;3.30;98.00;;;;;;5071778;28;20526;-64
2022/02/14 08:29:36;;;;;;;1.20;1.00;;;3.50;98.00;;;;;;5071721;28;20555;-63
2022/02/14 08:32:04;;;;;;;1.20;1.00;;;3.70;98.00;;;;;;5071658;28;20453;-64
2022/02/14 08:34:31;;;;;;;1.30;1.30;;;3.90;98.00;;;;;;5071504;28;20523;-64
2022/02/14 08:36:58;;;;;;;1.50;1.27;;;4.10;98.00;;;;;;5071769;28;20484;-64
2022/02/14 08:39:26;;;;;;;1.20;1.00;;;4.20;98.00;;;;;;5066874;28;20486;-64
2022/02/14 08:41:54;;;;;;;1.73;1.40;;;4.30;98.00;;;;;;5066901;28;20611;-64
2022/02/14 08:44:23;;;;;;;1.20;1.00;;;4.80;98.00;;;;;;5063310;28;20787;-64
2022/02/14 08:46:50;;;;;;;1.20;1.00;;;5.10;98.00;;;;;;5054924;28;20460;-64
2022/02/14 08:49:17;;;;;;;1.40;1.30;;;5.20;98.00;;;;;;5042209;28;20490;-65
2022/02/14 08:51:44;;;;;;;1.20;1.00;;;5.30;98.00;;;;;;5060464;28;20992;-62
2022/02/14 08:54:11;;;;;;;1.20;1.00;;;5.40;98.00;;;;;;5056255;28;20984;-63
2022/02/14 08:56:38;;;;;;;1.20;1.00;;;5.50;98.00;;;;;;5067821;28;20870;-67
2022/02/14 08:59:05;;;;;;;1.20;1.00;;;5.50;98.00;;;;;;5062210;28;20531;-62
2022/02/14 09:01:33;;;;;;;1.20;1.00;;;5.50;98.00;;;;;;5069635;28;20893;-62
2022/02/14 09:04:00;;;;;;;1.20;1.00;;;5.60;98.00;;;;;;5062404;28;20538;-64
2022/02/14 09:06:27;;;;;;;1.20;1.10;;;5.70;98.00;;;;;;5065218;28;20548;-62
2022/02/14 09:08:56;;;;;;;1.20;0.90;;;5.70;98.00;;;;;;5054073;28;20848;-63
2022/02/14 09:11:23;;;;;;;1.73;1.27;;;5.80;98.00;;;;;;5062360;28;20868;-63
2022/02/14 09:13:52;;;;;;;1.77;1.30;;;5.90;98.00;;;;;;5055230;28;21225;-63
2022/02/14 09:16:20;;;;;;;1.20;1.00;;;6.00;98.00;;;;;;5044774;28;20493;-64
2022/02/14 09:18:49;;;;;;;1.20;1.00;;;6.10;98.00;;;;;;5040115;28;20461;-63
2022/02/14 09:21:16;;;;;;;1.30;1.20;;;6.10;98.00;;;;;;5062220;28;20569;-63
2022/02/14 09:23:43;;;;;;;1.20;1.00;;;6.20;98.00;;;;;;5054298;28;20797;-63
2022/02/14 09:26:11;;;;;;;1.20;1.00;;;6.20;98.00;;;;;;5062040;28;20937;-63
2022/02/14 09:28:39;;;;;;;1.20;1.00;;;6.40;98.00;;;;;;5052366;28;20528;-63
2022/02/14 09:31:08;;;;;;;1.20;1.00;;;6.70;98.00;;;;;;5069669;28;20453;-65
2022/02/14 09:33:35;;;;;;;2.50;2.30;;;6.80;98.00;;;;;;5022463;28;20456;-60
2022/02/14 09:36:04;;;;;;;2.03;1.30;;;7.00;97.50;;;;;;5066368;28;20449;-62
2022/02/14 09:38:31;;;;;;;1.20;0.90;;;7.20;97.90;;;;;;5060461;28;20488;-64
2022/02/14 09:41:00;;;;;;;1.40;1.33;;;7.40;98.00;;;;;;5064719;28;20477;-63
2022/02/14 09:43:27;;;;;;;1.50;1.30;;;7.60;97.60;;;;;;5054099;28;20888;-64
2022/02/14 09:45:55;;;;;;;1.30;1.10;;;7.90;96.70;;;;;;5062349;28;20495;-64
2022/02/14 09:48:22;;;;;;;1.20;1.00;;;8.20;98.00;;;;;;5065465;28;20454;-64
2022/02/14 09:50:51;;;;;;;1.20;1.00;;;8.50;98.00;;;;;;5055277;28;20497;-63
2022/02/14 09:53:20;;;;;;;1.20;1.10;;;8.90;96.70;;;;;;5061165;28;20919;-65
2022/02/14 09:55:47;;;;;;;3.33;1.77;;;9.20;95.90;;;;;;5053070;28;20968;-66
2022/02/14 09:58:15;;;;;;;1.20;1.10;;;9.40;94.50;;;;;;5057880;28;20787;-65
2022/02/14 10:00:42;;;;;;;2.17;1.50;;;9.50;95.20;;;;;;5056948;28;20554;-64
2022/02/14 10:03:14;;;;;;;1.20;1.10;;;9.60;94.10;;;;;;5065291;28;20523;-65
2022/02/14 10:05:45;;;;;;;1.60;1.30;;;9.70;93.70;;;;;;5060854;28;20457;-64
2022/02/14 10:08:22;;;;;;;1.20;1.00;;;9.80;94.00;;;;;;5064887;28;20493;-65
2022/02/14 10:10:50;;;;;;;1.87;1.50;;;9.90;94.80;;;;;;5052806;28;20481;-66
2022/02/14 10:13:35;;;;;;;1.37;1.10;;;10.10;93.60;;;;;;5058925;28;20488;-65
2022/02/14 10:16:06;;;;;;;1.30;1.13;;;10.20;93.50;;;;;;5069086;28;20456;-66
2022/02/14 10:18:39;;;;;;;3.13;2.00;;;10.40;94.70;;;;;;5061491;28;20461;-66
2022/02/14 10:21:20;;;;;;;2.23;1.67;;;10.60;94.60;;;;;;5060756;28;20469;-67
2022/02/14 10:24:07;;;;;;;2.77;1.40;;;10.70;92.80;;;;;;5061081;28;20806;-66
2022/02/14 10:26:36;;;;;;;1.50;1.20;;;10.80;91.80;;;;;;5060901;28;20454;-66
2022/02/14 10:29:14;;;;;;;1.60;1.47;;;10.90;92.50;;;;;;5047382;28;20488;-66
2022/02/14 10:31:43;;;;;;;3.97;2.13;;;11.00;91.80;;;;;;5061723;28;21025;-66
2022/02/14 10:34:11;;;;;;;1.40;1.40;;;11.00;89.70;;;;;;5062871;28;20853;-65
2022/02/14 10:36:40;;;;;;;1.53;1.30;;;11.20;91.10;;;;;;5062651;28;20572;-66
2022/02/14 10:42:07;;;;;;;1.60;1.60;;;11.30;90.60;;;;;;5323270;22;20510;-71
2022/02/14 10:47:24;;;;;;;1.40;1.30;;;11.30;89.40;;;;;;5049913;28;20461;-70
2022/02/14 10:50:00;;;;;;;1.40;1.20;;;11.30;89.40;;;;;;5047468;28;20555;-69
2022/02/14 10:52:34;;;;;;;1.93;1.33;;;11.40;87.90;;;;;;5049854;28;20542;-70
2022/02/14 10:55:04;;;;;;;1.20;1.00;;;11.40;87.60;;;;;;5049591;28;20544;-70
2022/02/14 10:57:35;;;;;;;1.77;1.17;;;11.50;87.90;;;;;;5049692;28;20462;-70
2022/02/14 11:00:05;;;;;;;1.43;1.40;;;11.60;88.90;;;;;;5049757;28;20953;-70
2022/02/14 11:02:33;;;;;;;2.23;1.67;;;11.70;88.20;;;;;;5049375;28;20523;-70
2022/02/14 11:05:01;;;;;;;1.20;1.03;;;11.70;88.30;;;;;;5049610;28;20555;-70
2022/02/14 11:07:29;;;;;;;1.20;0.97;;;11.80;88.50;;;;;;5048753;28;20539;-70
2022/02/14 11:09:58;;;;;;;1.40;1.30;;;11.80;88.30;;;;;;5049472;28;20492;-70
2022/02/14 11:12:30;;;;;;;1.83;1.20;;;11.80;88.10;;;;;;5044222;28;20471;-70
2022/02/14 11:14:58;;;;;;;1.20;1.03;;;12.00;87.70;;;;;;5049209;28;20459;-70
2022/02/14 11:17:26;;;;;;;1.20;1.10;;;12.20;87.80;;;;;;5049184;28;20500;-70
2022/02/14 11:19:56;;;;;;;1.20;1.20;;;12.20;87.50;;;;;;5049618;28;20470;-70
2022/02/14 11:22:26;;;;;;;1.20;1.00;;;12.30;87.10;;;;;;5049097;28;20492;-70
2022/02/14 11:25:00;;;;;;;1.30;1.27;;;12.40;88.50;;;;;;5049435;28;20989;-70
2022/02/14 11:27:32;;;;;;;1.60;1.10;;;12.50;86.60;;;;;;5049376;28;20880;-70
2022/02/14 11:30:05;;;;;;;1.37;1.10;;;12.50;86.30;;;;;;5049165;28;20488;-70
2022/02/14 11:32:39;;;;;;;1.50;1.40;;;12.60;87.30;;;;;;5048949;28;20541;-70
2022/02/14 11:35:12;;;;;;;1.50;1.30;;;12.70;87.60;;;;;;5049120;28;20550;-70
2022/02/14 11:37:52;;;;;;;1.20;1.10;;;12.70;89.80;;;;;;5048976;28;20954;-70
2022/02/14 11:40:42;;;;;;;1.60;1.10;;;12.80;88.70;;;;;;5049178;28;20460;-71
2022/02/14 11:43:18;;;;;;;1.70;1.30;;;12.90;88.80;;;;;;5048715;28;20536;-70
2022/02/14 11:46:01;;;;;;;1.20;0.93;;;13.00;88.20;;;;;;5048947;28;20461;-70
2022/02/14 11:48:29;;;;;;;1.20;1.00;;;13.00;87.80;;;;;;5047629;28;20450;-70
2022/02/14 11:51:07;;;;;;;1.20;1.03;;;13.10;87.90;;;;;;5046511;28;20492;-70
2022/02/14 11:53:41;;;;;;;1.33;1.17;;;13.20;88.10;;;;;;5049856;28;20457;-69
2022/02/14 11:56:25;;;;;;;1.20;1.00;;;13.20;88.60;;;;;;5049002;28;20461;-70
2022/02/14 11:59:09;;;;;;;1.40;1.20;;;13.30;89.00;;;;;;5048682;28;20546;-70
2022/02/14 12:01:55;;;;;;;1.47;1.10;;;13.30;88.30;;;;;;5048925;28;20847;-70
2022/02/14 12:04:48;;;;;;;1.30;1.10;;;13.30;87.60;;;;;;5048409;28;20481;-69
2022/02/14 12:07:25;;;;;;;1.50;1.43;;;13.30;88.20;;;;;;5048541;28;20459;-69
2022/02/14 12:10:24;;;;;;;2.03;1.33;;;13.30;89.70;;;;;;5048688;28;20454;-69
2022/02/14 12:13:09;;;;;;;1.60;1.50;;;13.20;88.80;;;;;;5015614;28;20513;-69
2022/02/14 12:21:17;;;;;;;1.30;1.17;;;13.20;90.50;;;;;;5048653;28;21008;-69
2022/02/14 12:23:45;;;;;;;1.20;1.20;;;13.20;91.30;;;;;;5048394;28;20528;-70
2022/02/14 12:26:16;;;;;;;1.20;1.20;;;13.10;91.90;;;;;;5048315;28;22065;-69
2022/02/14 12:28:45;;;;;;;1.40;1.20;;;13.10;92.60;;;;;;5047915;28;20504;-69
2022/02/14 12:31:14;;;;;;;1.23;1.10;;;13.00;93.00;;;;;;5048395;28;20535;-69
2022/02/14 12:33:42;;;;;;;1.20;1.00;;;12.90;92.80;;;;;;5048066;28;20528;-69
2022/02/14 12:36:11;;;;;;;1.33;1.13;;;12.90;93.40;;;;;;5048438;28;20460;-70
2022/02/14 12:38:40;;;;;;;1.50;1.07;;;12.90;93.00;;;;;;5048186;28;20496;-70
2022/02/14 12:41:09;;;;;;;1.20;1.10;;;12.90;93.40;;;;;;5048234;28;20461;-70
2022/02/14 12:43:40;;;;;;;1.20;1.00;;;12.80;93.30;;;;;;5047767;28;21247;-70
2022/02/14 12:46:10;;;;;;;1.20;0.97;;;12.80;93.40;;;;;;5048489;28;20804;-70
2022/02/14 12:48:39;;;;;;;1.20;1.00;;;12.80;93.40;;;;;;5048252;28;20872;-71
2022/02/14 12:51:09;;;;;;;1.20;1.00;;;12.70;93.80;;;;;;5046141;28;20971;-70
2022/02/14 12:53:39;;;;;;;1.20;1.00;;;12.70;94.30;;;;;;5047321;28;20481;-70
2022/02/14 12:56:13;;;;;;;1.30;1.10;;;12.60;94.10;;;;;;5047851;28;20557;-70
2022/02/14 12:58:50;;;;;;;1.20;1.00;;;12.60;94.70;;;;;;5048139;28;20774;-70
2022/02/14 13:01:18;;;;;;;1.20;1.00;;;12.50;95.30;;;;;;5047722;28;20496;-70
2022/02/14 13:03:55;;;;;;;1.20;1.00;;;12.50;95.40;;;;;;5047712;28;21005;-70
2022/02/14 13:06:36;;;;;;;1.20;0.97;;;12.50;95.30;;;;;;5048052;28;20495;-70
2022/02/14 13:09:03;;;;;;;1.20;1.00;;;12.50;95.80;;;;;;5050433;28;20495;-71
2022/02/14 13:11:30;;;;;;;1.20;1.10;;;12.50;95.40;;;;;;5048427;28;20506;-70
2022/02/14 13:13:57;;;;;;;1.20;1.10;;;12.50;95.10;;;;;;5048377;28;20540;-71
2022/02/14 13:16:28;;;;;;;1.73;1.43;;;12.40;95.90;;;;;;5048150;28;20453;-70